Nearby METAR Reports

 

KIAG - Niagara Falls, New York, USA
Distance from station: W 12mi, 20km
Updated: 09/20/2019 3:53pm
Clear
Clear
 Wind from SSE
Wind: SSE 6 mph , 9 km/h
Temperature: 79°F , 26°C
Dew Point: 55°F , 13°C
Humidity: 45%
Barometer: 1021 hPa
Clouds: Clear
Visibility: 10 miles , 16 km
2019/09/20 19:53 KIAG 201953Z 16005KT 10SM CLR 26/13 A3015 RMK AO2 SLP210 T02560133
KBUF - Buffalo/Cheektow, New York, USA
Distance from station: S 13mi, 21km
Updated: 09/20/2019 3:54pm
Few Clouds
Few Clouds
 Wind from WNW
Wind: WNW 5 mph , 7 km/h
Temperature: 81°F , 27°C
Heat Index: 81°F , 27°C
Dew Point: 55°F , 13°C
Humidity: 42%
Barometer: 1021.3 hPa
Clouds: Few Clouds
Visibility: 10 miles , 16 km
Cloud details: Few Clouds 15000 ft
Few Clouds 21000 ft
Few Clouds 28000 ft
2019/09/20 19:54 KBUF 201954Z 29004KT 10SM FEW150 FEW210 FEW280 27/13 A3016 RMK AO2 SLP211 T02720128
 
KROC - Rochester, New York, USA
Distance from station: E 51mi, 82km
Updated: 09/20/2019 3:54pm
Partly cloudy
Partly cloudy
 Wind from calm
Wind: Calm
Temperature: 79°F , 26°C
Dew Point: 50°F , 10°C
Humidity: 37%
Barometer: 1021.7 hPa
Clouds: Partly cloudy
Visibility: 10 miles , 16 km
Cloud details: Few Clouds 4500 ft
Few Clouds 19000 ft
Partly cloudy 27000 ft
2019/09/20 19:54 KROC 201954Z 00000KT 10SM FEW045 FEW190 SCT270 26/10 A3017 RMK AO2 SLP219 T02560100
CYSN - St. Catharines A, Ontario, Canada
Distance from station: WNW 25mi, 40km
Updated: 09/20/2019 4:00pm
Partly cloudy
Partly cloudy
 Wind from SE
Wind: SE 7 mph , 11 km/h
Temperature: 79°F , 26°C
Dew Point: 55°F , 13°C
Humidity: 45%
Barometer: 1020.3 hPa
Clouds: Partly cloudy
Visibility: 15 miles , 24 km
Cloud details: Partly cloudy 22000 ft
2019/09/20 20:00 CYSN 202000Z 13006KT 15SM SCT220 26/13 A3013 RMK CI4 SLP205 DENSITY ALT 1500FT
 
KOLE - Olean, New York, USA
Distance from station: SSE 63mi, 102km
Updated: 09/20/2019 4:15pm
Clear
Clear
 Wind from calm
Wind: Calm
Temperature: 73°F , 23°C
Dew Point: 48°F , 9°C
Humidity: 41%
Barometer: 1023.4 hPa
Clouds: Clear
Visibility: 10 miles , 16 km
2019/09/20 20:15 KOLE 202015Z AUTO 00000KT 10SM CLR 23/09 A3022 RMK AO2
KJHW - Jamestown, New York, USA
Distance from station: SSW 74mi, 119km
Updated: 09/20/2019 3:56pm
Clear
Clear
 Wind from varies
Wind: varies 3 mph , 6 km/h
Temperature: 75°F , 24°C
Dew Point: 54°F , 12°C
Humidity: 47%
Barometer: 1023 hPa
Clouds: Clear
Visibility: 10 miles , 16 km
2019/09/20 19:56 KJHW 201956Z AUTO VRB03KT 10SM CLR 24/12 A3021 RMK AO2 SLP230 T02390117
 
CWWZ - Port Weller (mar, Ontario, Canada
Distance from station: WNW 28mi, 45km
Updated: 09/20/2019 4:00pm

 Wind from E
Wind: E 13 mph , 20 km/h
Temperature: 70°F , 21°C
Dew Point: 63°F , 17°C
Humidity: 78%
2019/09/20 20:00 CWWZ 202000Z AUTO 08011KT 21/17 RMK AO1 SLP207 T02060173 57013
CWPC - Port Colborne(Au, Ontario, Canada
Distance from station: WSW 33mi, 53km
Updated: 09/20/2019 4:00pm

 Wind from S
Wind: S 1 mph , 2 km/h
Temperature: 73°F , 23°C
Dew Point: 55°F , 13°C
Humidity: 53%
2019/09/20 20:00 CWPC 202000Z AUTO 18001KT 23/13 RMK AO1 SLP215 T02310133 58013
 
CXVN - Vineland (au8), Ontario, Canada
Distance from station: W 36mi, 58km
Updated: 09/20/2019 4:00pm

 Wind from ENE
Wind: ENE 7 mph , 11 km/h
Temperature: 72°F , 22°C
Dew Point: 63°F , 17°C
Humidity: 73%
2019/09/20 20:00 CXVN 202000Z AUTO 07006KT 22/17 RMK AO1 SLP205 T02210171 56012
CYTZ - Toronto Il Vor, Ontario, Canada
Distance from station: NW 50mi, 81km
Updated: 09/20/2019 4:00pm
Clear
Clear
 Wind from E
Wind: E 8 mph , 13 km/h
Temperature: 70°F , 21°C
Dew Point: 61°F , 16°C
Humidity: 73%
Barometer: 1020.7 hPa
Clouds: Clear
Visibility: 9 miles , 14 km
2019/09/20 20:00 CYTZ 202000Z AUTO 08007KT 9SM CLR 21/16 A3014 RMK SLP208 DENSITY ALT 800FT
 
CXTO - Toronto City, Ontario, Canada
Distance from station: NW 52mi, 84km
Updated: 09/20/2019 4:00pm

 
Temperature: 75°F , 24°C
Dew Point: 55°F , 13°C
Humidity: 50%
2019/09/20 20:00 CXTO 202000Z AUTO 24/13 RMK AO1 SLP214 T02400130 58015
KDKK - Dunkirk, New York, USA
Distance from station: SW 52mi, 84km
Updated: 09/20/2019 3:53pm
Clear
Clear
 Wind from N
Wind: N 6 mph , 9 km/h
Temperature: 81°F , 27°C
Heat Index: 81°F , 27°C
Dew Point: 57°F , 14°C
Humidity: 45%
Barometer: 1021.3 hPa
Clouds: Clear
Visibility: 10 miles , 16 km
2019/09/20 19:53 KDKK 201953Z AUTO 36005KT 10SM CLR 27/14 A3016 RMK AO2 SLP211 T02670139
 
CYOO - Oshawa, Ontario, Canada
Distance from station: N 56mi, 90km
Updated: 09/20/2019 4:00pm
Mostly cloudy
Mostly cloudy
 Wind from S
Wind: S 3 mph , 6 km/h
Temperature: 70°F , 21°C
Dew Point: 57°F , 14°C
Humidity: 64%
Barometer: 1021 hPa
Clouds: Mostly cloudy
Visibility: 9 miles , 14 km
Cloud details: Few Clouds 16000 ft
Partly cloudy 18000 ft
Mostly cloudy 20000 ft
2019/09/20 20:00 CYOO 202000Z AUTO 18003KT 9SM FEW160 SCT180 BKN200 21/14 A3015 RMK SLP213 DENSITY ALT 1000FT
CWWB - Burlington Piers, Ontario, Canada
Distance from station: WNW 56mi, 91km
Updated: 09/20/2019 4:00pm

 Wind from NE
Wind: NE 6 mph , 9 km/h
Temperature: 68°F , 20°C
Dew Point: 64°F , 18°C
Humidity: 88%
2019/09/20 20:00 CWWB 202000Z AUTO 04005KT 20/18 RMK AO1 SLP207 T01990178 56012
 
CYYZ - Toronto/Pearson, Ontario, Canada
Distance from station: NW 60mi, 96km
Updated: 09/20/2019 4:00pm
Mostly cloudy
Mostly cloudy
 Wind from SE
Wind: SE 12 mph , 19 km/h, Gust: 22 mph , 35 km/h
Temperature: 75°F , 24°C
Dew Point: 61°F , 16°C
Humidity: 61%
Barometer: 1020.7 hPa
Clouds: Mostly cloudy
Visibility: 15 miles , 24 km
Cloud details: Few Clouds 14000 ft
Partly cloudy 22000 ft
Mostly cloudy 26000 ft
2019/09/20 20:00 CYYZ 202000Z 14010G19KT 15SM FEW140 SCT220 BKN260 24/16 A3014 RMK AC2CC2CI1 SLP207 DENSITY ALT 1600FT
CYKZ - Toronto Buttonvi, Ontario, Canada
Distance from station: NW 62mi, 99km
Updated: 01/03/2019 4:00am
NOT Current
Partly cloudy
Partly cloudy
 Wind from WSW
Wind: WSW 5 mph , 7 km/h
Temperature: 27°F , -3°C
Wind Chill: 21°F , -6°C
Dew Point: 23°F , -5°C
Humidity: 86%
Barometer: 1010.8 hPa
Clouds: Partly cloudy
Visibility: 15 miles , 24 km
Cloud details: Partly cloudy 4000 ft
2019/01/03 09:00 CYKZ 030900Z 25004KT 15SM SCT040 M03/M05 A2985 RMK SC3 LAST STFD OBS FAREWELL SLP118
 
CXHM - Hamilton Rbg Cs, Ontario, Canada
Distance from station: W 62mi, 100km
Updated: 09/20/2019 4:00pm

 Wind from ENE
Wind: ENE 6 mph , 9 km/h
2019/09/20 20:00 CXHM 202000Z AUTO 07005KT RMK AO1 56011
KDSV - Dansville, New York, USA
Distance from station: SE 62mi, 100km
Updated: 09/20/2019 3:54pm
Clear
Clear
 Wind from calm
Wind: Calm
Temperature: 79°F , 26°C
Dew Point: 46°F , 8°C
Humidity: 32%
Barometer: 1021.7 hPa
Clouds: Clear
Visibility: 10 miles , 16 km
2019/09/20 19:54 KDSV 201954Z AUTO 00000KT 10SM CLR 26/08 A3017 RMK AO2 SLP224 T02560083
 
CYHM - Hamilton Airport, Ontario, Canada
Distance from station: W 63mi, 101km
Updated: 09/20/2019 4:00pm
Partly cloudy
Partly cloudy
 Wind from SW
Wind: SW 9 mph , 15 km/h
Temperature: 79°F , 26°C
Dew Point: 59°F , 15°C
Humidity: 51%
Barometer: 1021 hPa
Clouds: Partly cloudy
Visibility: 15 miles , 24 km
Cloud details: Few Clouds 4400 ft
Partly cloudy 21000 ft
Partly cloudy 25000 ft
2019/09/20 20:00 CYHM 202000Z 22008KT 15SM FEW044 SCT210 SCT250 26/15 A3015 RMK CU1CC3CI1 CU TR SLP211 DENSITY ALT 2000FT
CWNC - Cobourg (mars), Ontario, Canada
Distance from station: NNE 63mi, 102km
Updated: 09/20/2019 4:00pm

 Wind from S
Wind: S 1 mph , 2 km/h
Temperature: 68°F , 20°C
Dew Point: 61°F , 16°C
Humidity: 78%
2019/09/20 20:00 CWNC 202000Z AUTO 19001KT 20/16 RMK AO1 SLP216 T01980155 56013